sensor_id;sensor_type;location;lat;lon;timestamp;pressure;altitude;pressure_sealevel;temperature;humidity
31403;BME280;18039;52.188;21.024;2023-04-21T00:00:24;76767.22;;;-141.45;52.71
31403;BME280;18039;52.188;21.024;2023-04-21T00:03:11;76775.34;;;-141.45;53.06
31403;BME280;18039;52.188;21.024;2023-04-21T00:05:39;76779.38;;;-141.45;53.28
31403;BME280;18039;52.188;21.024;2023-04-21T00:08:08;76785.47;;;-141.45;53.39
31403;BME280;18039;52.188;21.024;2023-04-21T00:10:35;76799.66;;;-141.45;53.50
31403;BME280;18039;52.188;21.024;2023-04-21T00:13:03;76791.56;;;-141.45;53.68
31403;BME280;18039;52.188;21.024;2023-04-21T00:15:30;76791.56;;;-141.45;53.45
31403;BME280;18039;52.188;21.024;2023-04-21T00:17:57;76783.44;;;-141.45;53.62
31403;BME280;18039;52.188;21.024;2023-04-21T00:20:25;76791.56;;;-141.45;53.76
31403;BME280;18039;52.188;21.024;2023-04-21T00:22:56;76791.56;;;-141.45;53.74
31403;BME280;18039;52.188;21.024;2023-04-21T00:25:24;76803.72;;;-141.45;54.05
31403;BME280;18039;52.188;21.024;2023-04-21T00:27:52;76803.72;;;-141.45;53.63
31403;BME280;18039;52.188;21.024;2023-04-21T00:30:19;76805.75;;;-141.45;53.99
31403;BME280;18039;52.188;21.024;2023-04-21T00:32:47;76811.81;;;-141.45;54.19
31403;BME280;18039;52.188;21.024;2023-04-21T00:35:14;76815.88;;;-141.45;54.43
31403;BME280;18039;52.188;21.024;2023-04-21T00:37:41;76815.88;;;-141.45;54.11
31403;BME280;18039;52.188;21.024;2023-04-21T00:40:10;76815.88;;;-141.45;54.25
31403;BME280;18039;52.188;21.024;2023-04-21T00:42:39;76819.94;;;-141.45;54.40
31403;BME280;18039;52.188;21.024;2023-04-21T00:45:06;76828.03;;;-141.45;54.71
31403;BME280;18039;52.188;21.024;2023-04-21T00:47:34;76830.06;;;-141.45;54.73
31403;BME280;18039;52.188;21.024;2023-04-21T00:50:02;76836.16;;;-141.45;54.68
31403;BME280;18039;52.188;21.024;2023-04-21T00:52:30;76830.06;;;-141.45;54.67
31403;BME280;18039;52.188;21.024;2023-04-21T00:54:58;76836.16;;;-141.45;54.96
31403;BME280;18039;52.188;21.024;2023-04-21T00:57:26;76842.22;;;-141.45;55.00
31403;BME280;18039;52.188;21.024;2023-04-21T00:59:54;76836.16;;;-141.45;55.09
31403;BME280;18039;52.188;21.024;2023-04-21T01:02:23;76846.28;;;-141.45;55.35
31403;BME280;18039;52.188;21.024;2023-04-21T01:04:51;76852.38;;;-141.45;55.37
31403;BME280;18039;52.188;21.024;2023-04-21T01:07:19;76858.44;;;-141.45;55.62
31403;BME280;18039;52.188;21.024;2023-04-21T01:09:46;76860.47;;;-141.45;55.73
31403;BME280;18039;52.188;21.024;2023-04-21T01:12:13;76866.56;;;-141.45;55.90
31403;BME280;18039;52.188;21.024;2023-04-21T01:14:41;76870.63;;;-141.45;56.10
31403;BME280;18039;52.188;21.024;2023-04-21T01:17:09;76872.66;;;-141.45;56.22
31403;BME280;18039;52.188;21.024;2023-04-21T01:19:41;76876.69;;;-141.45;56.45
31403;BME280;18039;52.188;21.024;2023-04-21T01:22:10;76876.69;;;-141.45;56.76
31403;BME280;18039;52.188;21.024;2023-04-21T01:24:42;76888.88;;;-141.45;56.84
31403;BME280;18039;52.188;21.024;2023-04-21T01:27:13;76892.91;;;-141.45;56.94
31403;BME280;18039;52.188;21.024;2023-04-21T01:29:42;76901.03;;;-141.45;57.16
31403;BME280;18039;52.188;21.024;2023-04-21T01:32:11;76896.97;;;-141.45;57.17
31403;BME280;18039;52.188;21.024;2023-04-21T01:34:40;76905.09;;;-141.45;57.45
31403;BME280;18039;52.188;21.024;2023-04-21T01:37:11;76913.19;;;-141.45;57.61
31403;BME280;18039;52.188;21.024;2023-04-21T01:39:40;76913.19;;;-141.45;57.78
31403;BME280;18039;52.188;21.024;2023-04-21T01:42:08;76917.25;;;-141.45;57.77
31403;BME280;18039;52.188;21.024;2023-04-21T01:44:36;76925.34;;;-141.45;58.06
31403;BME280;18039;52.188;21.024;2023-04-21T01:47:04;76929.41;;;-141.45;58.34
31403;BME280;18039;52.188;21.024;2023-04-21T01:49:32;76937.53;;;-141.45;58.43
31403;BME280;18039;52.188;21.024;2023-04-21T01:51:59;76941.56;;;-141.45;58.40
31403;BME280;18039;52.188;21.024;2023-04-21T01:54:27;76949.69;;;-141.45;58.60
31403;BME280;18039;52.188;21.024;2023-04-21T01:56:54;76951.72;;;-141.45;58.70
31403;BME280;18039;52.188;21.024;2023-04-21T01:59:22;76961.84;;;-141.45;59.14
31403;BME280;18039;52.188;21.024;2023-04-21T02:01:50;76961.84;;;-141.45;59.18
31403;BME280;18039;52.188;21.024;2023-04-21T02:04:17;76965.91;;;-141.45;59.27
31403;BME280;18039;52.188;21.024;2023-04-21T02:06:45;76969.94;;;-141.45;59.46
31403;BME280;18039;52.188;21.024;2023-04-21T02:09:12;76974.00;;;-141.45;59.43
31403;BME280;18039;52.188;21.024;2023-04-21T02:11:40;76969.94;;;-141.45;59.54
31403;BME280;18039;52.188;21.024;2023-04-21T02:14:07;76969.94;;;-141.45;59.89
31403;BME280;18039;52.188;21.024;2023-04-21T02:16:34;76982.13;;;-141.45;59.83
31403;BME280;18039;52.188;21.024;2023-04-21T02:19:02;76982.13;;;-141.45;59.97
31403;BME280;18039;52.188;21.024;2023-04-21T02:21:29;76986.16;;;-141.45;59.94
31403;BME280;18039;52.188;21.024;2023-04-21T02:23:58;76992.25;;;-141.45;59.94
31403;BME280;18039;52.188;21.024;2023-04-21T02:26:25;76994.28;;;-141.45;60.22
31403;BME280;18039;52.188;21.024;2023-04-21T02:28:52;76998.34;;;-141.45;60.28
31403;BME280;18039;52.188;21.024;2023-04-21T02:31:20;77002.41;;;-141.45;60.10
31403;BME280;18039;52.188;21.024;2023-04-21T02:33:47;76994.28;;;-141.45;60.30
31403;BME280;18039;52.188;21.024;2023-04-21T02:36:14;77002.41;;;-141.45;60.25
31403;BME280;18039;52.188;21.024;2023-04-21T02:38:41;77010.50;;;-141.45;60.46
31403;BME280;18039;52.188;21.024;2023-04-21T02:41:09;77012.53;;;-141.45;60.63
31403;BME280;18039;52.188;21.024;2023-04-21T02:43:38;77014.56;;;-141.45;60.69
31403;BME280;18039;52.188;21.024;2023-04-21T02:46:06;77012.53;;;-141.45;60.60
31403;BME280;18039;52.188;21.024;2023-04-21T02:48:34;77012.53;;;-141.45;60.58
31403;BME280;18039;52.188;21.024;2023-04-21T02:51:02;77010.50;;;-141.45;60.98
31403;BME280;18039;52.188;21.024;2023-04-21T02:53:31;77018.63;;;-141.45;61.10
31403;BME280;18039;52.188;21.024;2023-04-21T02:55:58;77022.66;;;-141.45;61.44
31403;BME280;18039;52.188;21.024;2023-04-21T02:58:29;77026.72;;;-141.45;61.56
31403;BME280;18039;52.188;21.024;2023-04-21T03:00:57;77030.78;;;-141.45;61.63
31403;BME280;18039;52.188;21.024;2023-04-21T03:03:26;77038.88;;;-141.45;62.00
31403;BME280;18039;52.188;21.024;2023-04-21T03:06:01;77038.88;;;-141.45;62.29
31403;BME280;18039;52.188;21.024;2023-04-21T03:08:29;77051.06;;;-141.45;62.87
31403;BME280;18039;52.188;21.024;2023-04-21T03:10:58;77051.06;;;-141.45;63.08
31403;BME280;18039;52.188;21.024;2023-04-21T03:13:25;77055.09;;;-141.45;63.04
31403;BME280;18039;52.188;21.024;2023-04-21T03:15:52;77067.28;;;-141.45;63.63
31403;BME280;18039;52.188;21.024;2023-04-21T03:18:20;77067.28;;;-141.45;63.61
31403;BME280;18039;52.188;21.024;2023-04-21T03:20:47;77075.38;;;-141.45;63.75
31403;BME280;18039;52.188;21.024;2023-04-21T03:23:14;77083.50;;;-141.45;63.47
31403;BME280;18039;52.188;21.024;2023-04-21T03:25:42;77077.41;;;-141.45;63.71
31403;BME280;18039;52.188;21.024;2023-04-21T03:28:09;77083.50;;;-141.45;63.50
31403;BME280;18039;52.188;21.024;2023-04-21T03:30:36;77073.34;;;-141.45;63.56
31403;BME280;18039;52.188;21.024;2023-04-21T03:33:03;77087.53;;;-141.45;63.56
31403;BME280;18039;52.188;21.024;2023-04-21T03:35:32;77079.44;;;-141.45;63.42
31403;BME280;18039;52.188;21.024;2023-04-21T03:38:00;77081.47;;;-141.45;63.38
31403;BME280;18039;52.188;21.024;2023-04-21T03:40:30;77075.38;;;-141.45;63.52
31403;BME280;18039;52.188;21.024;2023-04-21T03:42:57;77085.50;;;-141.45;63.73
31403;BME280;18039;52.188;21.024;2023-04-21T03:45:24;77089.56;;;-141.45;63.93
31403;BME280;18039;52.188;21.024;2023-04-21T03:47:52;77093.63;;;-141.45;63.57
31403;BME280;18039;52.188;21.024;2023-04-21T03:50:20;77093.63;;;-141.45;63.71
31403;BME280;18039;52.188;21.024;2023-04-21T03:52:48;77095.66;;;-141.45;63.53
31403;BME280;18039;52.188;21.024;2023-04-21T03:55:16;77095.66;;;-141.45;63.30
31403;BME280;18039;52.188;21.024;2023-04-21T03:57:43;77095.66;;;-141.45;63.22
31403;BME280;18039;52.188;21.024;2023-04-21T04:00:11;77095.66;;;-141.45;62.91
31403;BME280;18039;52.188;21.024;2023-04-21T04:02:39;77095.66;;;-141.45;62.87
31403;BME280;18039;52.188;21.024;2023-04-21T04:05:07;77097.69;;;-141.45;62.20
31403;BME280;18039;52.188;21.024;2023-04-21T04:07:34;77087.53;;;-141.45;62.14
31403;BME280;18039;52.188;21.024;2023-04-21T04:10:02;77091.59;;;-141.45;62.59
31403;BME280;18039;52.188;21.024;2023-04-21T04:12:30;77093.63;;;-141.45;62.75
31403;BME280;18039;52.188;21.024;2023-04-21T04:14:57;77095.66;;;-141.45;62.88
31403;BME280;18039;52.188;21.024;2023-04-21T04:17:24;77097.69;;;-141.45;62.82
31403;BME280;18039;52.188;21.024;2023-04-21T04:19:52;77095.66;;;-141.45;62.47
31403;BME280;18039;52.188;21.024;2023-04-21T04:22:19;77095.66;;;-141.45;62.60
31403;BME280;18039;52.188;21.024;2023-04-21T04:24:47;77095.66;;;-141.45;62.33
31403;BME280;18039;52.188;21.024;2023-04-21T04:27:14;77095.66;;;-141.45;62.69
31403;BME280;18039;52.188;21.024;2023-04-21T04:29:42;77095.66;;;-141.45;62.41
31403;BME280;18039;52.188;21.024;2023-04-21T04:32:09;77091.59;;;-141.45;61.55
31403;BME280;18039;52.188;21.024;2023-04-21T04:34:37;77091.59;;;-141.45;61.50
31403;BME280;18039;52.188;21.024;2023-04-21T04:37:04;77095.66;;;-141.45;61.52
31403;BME280;18039;52.188;21.024;2023-04-21T04:39:32;77091.59;;;-141.45;60.89
31403;BME280;18039;52.188;21.024;2023-04-21T04:42:00;77095.66;;;-141.45;61.20
31403;BME280;18039;52.188;21.024;2023-04-21T04:44:27;77083.50;;;-141.45;61.07
31403;BME280;18039;52.188;21.024;2023-04-21T04:46:54;77079.44;;;-141.45;60.25
31403;BME280;18039;52.188;21.024;2023-04-21T04:49:22;77071.31;;;-141.45;60.11
31403;BME280;18039;52.188;21.024;2023-04-21T04:51:50;77063.22;;;-141.45;59.85
31403;BME280;18039;52.188;21.024;2023-04-21T04:54:17;77051.06;;;-141.45;59.13
31403;BME280;18039;52.188;21.024;2023-04-21T04:56:45;77051.06;;;-141.45;59.69
31403;BME280;18039;52.188;21.024;2023-04-21T04:59:12;77034.84;;;-141.45;58.61
31403;BME280;18039;52.188;21.024;2023-04-21T05:01:39;77030.78;;;-141.45;58.10
31403;BME280;18039;52.188;21.024;2023-04-21T05:04:08;77016.59;;;-141.45;58.55
31403;BME280;18039;52.188;21.024;2023-04-21T05:06:35;77008.47;;;-141.45;57.69
31403;BME280;18039;52.188;21.024;2023-04-21T05:09:03;77006.44;;;-141.45;56.90
31403;BME280;18039;52.188;21.024;2023-04-21T05:11:30;76994.28;;;-141.45;57.11
31403;BME280;18039;52.188;21.024;2023-04-21T05:13:58;76982.13;;;-141.45;56.92
31403;BME280;18039;52.188;21.024;2023-04-21T05:16:25;76974.00;;;-141.45;55.79
31403;BME280;18039;52.188;21.024;2023-04-21T05:18:53;76967.94;;;-141.45;56.00
31403;BME280;18039;52.188;21.024;2023-04-21T05:21:26;76949.69;;;-141.45;55.08
31403;BME280;18039;52.188;21.024;2023-04-21T05:23:55;76947.66;;;-141.45;55.11
31403;BME280;18039;52.188;21.024;2023-04-21T05:26:23;76941.56;;;-141.45;53.99
31403;BME280;18039;52.188;21.024;2023-04-21T05:28:50;76925.34;;;-141.45;53.23
31403;BME280;18039;52.188;21.024;2023-04-21T05:31:17;76913.19;;;-141.45;53.74
31403;BME280;18039;52.188;21.024;2023-04-21T05:33:45;76896.97;;;-141.45;53.33
31403;BME280;18039;52.188;21.024;2023-04-21T05:36:12;76888.88;;;-141.45;53.16
31403;BME280;18039;52.188;21.024;2023-04-21T05:38:40;76880.75;;;-141.45;52.67
31403;BME280;18039;52.188;21.024;2023-04-21T05:41:07;76872.66;;;-141.45;52.38
31403;BME280;18039;52.188;21.024;2023-04-21T05:43:35;76864.53;;;-141.45;52.07
31403;BME280;18039;52.188;21.024;2023-04-21T05:46:08;76860.47;;;-141.45;51.28
31403;BME280;18039;52.188;21.024;2023-04-21T05:48:37;76846.28;;;-141.45;50.89
31403;BME280;18039;52.188;21.024;2023-04-21T05:51:12;76840.22;;;-141.45;51.30
31403;BME280;18039;52.188;21.024;2023-04-21T05:53:40;76828.03;;;-141.45;50.23
31403;BME280;18039;52.188;21.024;2023-04-21T05:56:08;76824.00;;;-141.45;50.06
31403;BME280;18039;52.188;21.024;2023-04-21T05:58:36;76815.88;;;-141.45;49.41
31403;BME280;18039;52.188;21.024;2023-04-21T06:01:04;76805.75;;;-141.45;49.67
31403;BME280;18039;52.188;21.024;2023-04-21T06:03:33;76783.44;;;-141.45;49.67
31403;BME280;18039;52.188;21.024;2023-04-21T06:06:02;76771.28;;;-141.45;48.54
31403;BME280;18039;52.188;21.024;2023-04-21T06:08:30;76755.06;;;-141.45;48.62
31403;BME280;18039;52.188;21.024;2023-04-21T06:10:57;76751.00;;;-141.45;48.32
31403;BME280;18039;52.188;21.024;2023-04-21T06:13:24;76738.84;;;-141.45;48.51
31403;BME280;18039;52.188;21.024;2023-04-21T06:15:54;76726.69;;;-141.45;47.90
31403;BME280;18039;52.188;21.024;2023-04-21T06:18:21;76722.63;;;-141.45;47.42
31403;BME280;18039;52.188;21.024;2023-04-21T06:20:51;76710.47;;;-141.45;47.08
31403;BME280;18039;52.188;21.024;2023-04-21T06:23:19;76698.31;;;-141.45;46.76
31403;BME280;18039;52.188;21.024;2023-04-21T06:25:46;76682.09;;;-141.45;47.00
31403;BME280;18039;52.188;21.024;2023-04-21T06:28:14;76673.97;;;-141.45;46.44
31403;BME280;18039;52.188;21.024;2023-04-21T06:30:41;76655.72;;;-141.45;46.68
31403;BME280;18039;52.188;21.024;2023-04-21T06:33:10;76649.66;;;-141.45;45.92
31403;BME280;18039;52.188;21.024;2023-04-21T06:35:37;76641.53;;;-141.45;45.74
31403;BME280;18039;52.188;21.024;2023-04-21T06:38:07;76629.38;;;-141.45;45.99
31403;BME280;18039;52.188;21.024;2023-04-21T06:40:34;76623.31;;;-141.45;44.49
31403;BME280;18039;52.188;21.024;2023-04-21T06:43:01;76611.13;;;-141.45;44.44
31403;BME280;18039;52.188;21.024;2023-04-21T06:45:29;76605.06;;;-141.45;44.49
31403;BME280;18039;52.188;21.024;2023-04-21T06:47:56;76584.78;;;-141.45;43.99
31403;BME280;18039;52.188;21.024;2023-04-21T06:50:23;76576.69;;;-141.45;44.09
31403;BME280;18039;52.188;21.024;2023-04-21T06:52:51;76564.50;;;-141.45;43.54
31403;BME280;18039;52.188;21.024;2023-04-21T06:55:18;76556.41;;;-141.45;43.91
31403;BME280;18039;52.188;21.024;2023-04-21T06:57:46;76540.19;;;-141.45;42.97
31403;BME280;18039;52.188;21.024;2023-04-21T07:00:13;76530.06;;;-141.45;42.48
31403;BME280;18039;52.188;21.024;2023-04-21T07:02:41;76521.94;;;-141.45;42.85
31403;BME280;18039;52.188;21.024;2023-04-21T07:05:08;76503.69;;;-141.45;43.28
31403;BME280;18039;52.188;21.024;2023-04-21T07:07:35;76491.53;;;-141.45;42.58
31403;BME280;18039;52.188;21.024;2023-04-21T07:10:03;76471.28;;;-141.45;42.19
31403;BME280;18039;52.188;21.024;2023-04-21T07:12:30;76463.16;;;-141.45;42.29
31403;BME280;18039;52.188;21.024;2023-04-21T07:14:57;76446.94;;;-141.45;41.73
31403;BME280;18039;52.188;21.024;2023-04-21T07:17:24;76426.69;;;-141.45;41.30
31403;BME280;18039;52.188;21.024;2023-04-21T07:19:52;76422.63;;;-141.45;40.42
31403;BME280;18039;52.188;21.024;2023-04-21T07:22:19;76414.50;;;-141.45;40.29
31403;BME280;18039;52.188;21.024;2023-04-21T07:24:46;76410.47;;;-141.45;40.42
31403;BME280;18039;52.188;21.024;2023-04-21T07:27:15;76394.25;;;-141.45;40.62
31403;BME280;18039;52.188;21.024;2023-04-21T07:29:44;76380.06;;;-141.45;40.19
31403;BME280;18039;52.188;21.024;2023-04-21T07:32:12;76361.81;;;-141.45;39.52
31403;BME280;18039;52.188;21.024;2023-04-21T07:34:39;76357.75;;;-141.45;39.43
31403;BME280;18039;52.188;21.024;2023-04-21T07:37:06;76357.75;;;-141.45;39.34
31403;BME280;18039;52.188;21.024;2023-04-21T07:39:33;76351.69;;;-141.45;39.00
31403;BME280;18039;52.188;21.024;2023-04-21T07:42:01;76335.47;;;-141.45;39.75
31403;BME280;18039;52.188;21.024;2023-04-21T07:44:28;76317.22;;;-141.45;38.53
31403;BME280;18039;52.188;21.024;2023-04-21T07:46:56;76305.06;;;-141.45;38.29
31403;BME280;18039;52.188;21.024;2023-04-21T07:49:23;76301.00;;;-141.45;38.03
31403;BME280;18039;52.188;21.024;2023-04-21T07:51:50;76303.03;;;-141.45;38.15
31403;BME280;18039;52.188;21.024;2023-04-21T07:54:18;76294.91;;;-141.45;37.40
31403;BME280;18039;52.188;21.024;2023-04-21T07:56:45;76272.63;;;-141.45;37.02
31403;BME280;18039;52.188;21.024;2023-04-21T07:59:12;76276.69;;;-141.45;36.96
31403;BME280;18039;52.188;21.024;2023-04-21T08:01:40;76256.41;;;-141.45;36.29
31403;BME280;18039;52.188;21.024;2023-04-21T08:04:07;76244.25;;;-141.45;36.52
31403;BME280;18039;52.188;21.024;2023-04-21T08:06:35;76228.03;;;-141.45;36.66
31403;BME280;18039;52.188;21.024;2023-04-21T08:09:02;76203.72;;;-141.45;35.67
31403;BME280;18039;52.188;21.024;2023-04-21T08:11:30;76193.56;;;-141.45;35.30
31403;BME280;18039;52.188;21.024;2023-04-21T08:13:57;76187.50;;;-141.45;35.27
31403;BME280;18039;52.188;21.024;2023-04-21T08:16:25;76183.44;;;-141.45;34.54
31403;BME280;18039;52.188;21.024;2023-04-21T08:18:52;76171.28;;;-141.45;34.29
31403;BME280;18039;52.188;21.024;2023-04-21T08:21:19;76173.31;;;-141.45;34.11
31403;BME280;18039;52.188;21.024;2023-04-21T08:23:46;76159.13;;;-141.45;34.63
31403;BME280;18039;52.188;21.024;2023-04-21T08:26:14;76151.00;;;-141.45;34.48
31403;BME280;18039;52.188;21.024;2023-04-21T08:28:41;76130.75;;;-141.45;33.61
31403;BME280;18039;52.188;21.024;2023-04-21T08:31:09;76118.59;;;-141.45;33.51
31403;BME280;18039;52.188;21.024;2023-04-21T08:33:36;76112.50;;;-141.45;33.30
31403;BME280;18039;52.188;21.024;2023-04-21T08:36:16;76110.47;;;-141.45;32.79
31403;BME280;18039;52.188;21.024;2023-04-21T08:38:55;76098.31;;;-141.45;33.40
31403;BME280;18039;52.188;21.024;2023-04-21T08:41:23;76086.16;;;-141.45;32.91
31403;BME280;18039;52.188;21.024;2023-04-21T08:43:51;76088.19;;;-141.45;32.93
31403;BME280;18039;52.188;21.024;2023-04-21T08:46:18;76106.41;;;-141.45;32.96
31403;BME280;18039;52.188;21.024;2023-04-21T08:48:46;76102.38;;;-141.45;32.19
31403;BME280;18039;52.188;21.024;2023-04-21T08:51:20;76086.16;;;-141.45;32.92
31403;BME280;18039;52.188;21.024;2023-04-21T08:53:49;76088.19;;;-141.45;32.58
31403;BME280;18039;52.188;21.024;2023-04-21T08:56:16;76069.94;;;-141.45;32.68
31403;BME280;18039;52.188;21.024;2023-04-21T08:58:43;76071.97;;;-141.45;32.84
31403;BME280;18039;52.188;21.024;2023-04-21T09:01:11;76069.94;;;-141.45;31.87
31403;BME280;18039;52.188;21.024;2023-04-21T09:03:38;76061.84;;;-141.45;31.97
31403;BME280;18039;52.188;21.024;2023-04-21T09:06:07;76053.72;;;-141.45;32.25
31403;BME280;18039;52.188;21.024;2023-04-21T09:08:38;76045.63;;;-141.45;32.06
31403;BME280;18039;52.188;21.024;2023-04-21T09:11:12;76027.38;;;-141.45;31.41
31403;BME280;18039;52.188;21.024;2023-04-21T09:13:41;76035.47;;;-141.45;31.63
31403;BME280;18039;52.188;21.024;2023-04-21T09:16:18;76013.19;;;-141.45;31.59
31403;BME280;18039;52.188;21.024;2023-04-21T09:18:49;76009.13;;;-141.45;31.73
31403;BME280;18039;52.188;21.024;2023-04-21T09:21:18;76005.09;;;-141.45;30.70
31403;BME280;18039;52.188;21.024;2023-04-21T09:23:47;76001.03;;;-141.45;30.62
31403;BME280;18039;52.188;21.024;2023-04-21T09:26:16;75980.75;;;-141.45;30.92
31403;BME280;18039;52.188;21.024;2023-04-21T09:28:46;75980.75;;;-141.45;30.56
31403;BME280;18039;52.188;21.024;2023-04-21T09:31:16;75978.75;;;-141.45;30.04
31403;BME280;18039;52.188;21.024;2023-04-21T09:33:46;75972.66;;;-141.45;29.91
31403;BME280;18039;52.188;21.024;2023-04-21T09:36:27;75980.75;;;-141.45;30.21
31403;BME280;18039;52.188;21.024;2023-04-21T09:39:00;75976.72;;;-141.45;30.42
31403;BME280;18039;52.188;21.024;2023-04-21T09:41:31;75976.72;;;-141.45;30.07
31403;BME280;18039;52.188;21.024;2023-04-21T09:43:59;75972.66;;;-141.45;30.12
31403;BME280;18039;52.188;21.024;2023-04-21T09:46:31;75976.72;;;-141.45;30.43
31403;BME280;18039;52.188;21.024;2023-04-21T09:49:02;75980.75;;;-141.45;30.73
31403;BME280;18039;52.188;21.024;2023-04-21T09:51:31;75968.59;;;-141.45;30.11
31403;BME280;18039;52.188;21.024;2023-04-21T09:54:20;75960.50;;;-141.45;30.16
31403;BME280;18039;52.188;21.024;2023-04-21T09:56:53;75952.38;;;-141.45;30.30
31403;BME280;18039;52.188;21.024;2023-04-21T09:59:25;75932.13;;;-141.45;30.43
31403;BME280;18039;52.188;21.024;2023-04-21T10:01:57;75911.84;;;-141.45;30.98
31403;BME280;18039;52.188;21.024;2023-04-21T10:04:27;75899.69;;;-141.45;30.34
31403;BME280;18039;52.188;21.024;2023-04-21T10:06:58;75891.59;;;-141.45;30.06
31403;BME280;18039;52.188;21.024;2023-04-21T10:09:32;75871.31;;;-141.45;30.43
31403;BME280;18039;52.188;21.024;2023-04-21T10:12:02;75871.31;;;-141.45;29.47
31403;BME280;18039;52.188;21.024;2023-04-21T10:14:31;75875.38;;;-141.45;29.52
31403;BME280;18039;52.188;21.024;2023-04-21T10:17:07;75875.38;;;-141.45;29.64
31403;BME280;18039;52.188;21.024;2023-04-21T10:19:37;75879.44;;;-141.45;29.86
31403;BME280;18039;52.188;21.024;2023-04-21T10:22:13;75863.22;;;-141.45;29.83
31403;BME280;18039;52.188;21.024;2023-04-21T10:24:41;75851.06;;;-141.45;30.24
31403;BME280;18039;52.188;21.024;2023-04-21T10:27:10;75838.91;;;-141.45;29.81
31403;BME280;18039;52.188;21.024;2023-04-21T10:29:38;75830.78;;;-141.45;29.80
31403;BME280;18039;52.188;21.024;2023-04-21T10:32:39;75832.81;;;-141.45;29.58
31403;BME280;18039;52.188;21.024;2023-04-21T10:35:58;75830.78;;;-141.45;29.16
31403;BME280;18039;52.188;21.024;2023-04-21T10:37:57;75816.59;;;-141.45;29.48
31403;BME280;18039;52.188;21.024;2023-04-21T10:40:34;75798.38;;;-141.45;29.36
31403;BME280;18039;52.188;21.024;2023-04-21T10:43:40;75802.41;;;-141.45;29.32
31403;BME280;18039;52.188;21.024;2023-04-21T10:46:31;75798.38;;;-141.45;28.45
31403;BME280;18039;52.188;21.024;2023-04-21T10:49:08;75810.53;;;-141.45;28.89
31403;BME280;18039;52.188;21.024;2023-04-21T10:54:26;75798.38;;;-141.45;28.07
31403;BME280;18039;52.188;21.024;2023-04-21T10:56:55;75792.28;;;-141.45;27.99
31403;BME280;18039;52.188;21.024;2023-04-21T10:59:23;75796.34;;;-141.45;27.98
31403;BME280;18039;52.188;21.024;2023-04-21T11:01:50;75794.31;;;-141.45;27.72
31403;BME280;18039;52.188;21.024;2023-04-21T11:04:20;75798.38;;;-141.45;28.33
31403;BME280;18039;52.188;21.024;2023-04-21T11:09:47;75778.09;;;-141.45;29.10
31403;BME280;18039;52.188;21.024;2023-04-21T11:12:16;75765.94;;;-141.45;29.04
31403;BME280;18039;52.188;21.024;2023-04-21T11:14:45;75774.03;;;-141.45;28.92
31403;BME280;18039;52.188;21.024;2023-04-21T11:17:16;75757.81;;;-141.45;29.19
31403;BME280;18039;52.188;21.024;2023-04-21T11:19:52;75741.63;;;-141.45;28.37
31403;BME280;18039;52.188;21.024;2023-04-21T11:22:22;75741.63;;;-141.45;28.07
31403;BME280;18039;52.188;21.024;2023-04-21T11:24:53;75737.56;;;-141.45;28.47
31403;BME280;18039;52.188;21.024;2023-04-21T11:27:20;75727.44;;;-141.45;28.50
31403;BME280;18039;52.188;21.024;2023-04-21T11:29:50;75717.28;;;-141.45;27.97
31403;BME280;18039;52.188;21.024;2023-04-21T11:32:17;75729.47;;;-141.45;28.08
31403;BME280;18039;52.188;21.024;2023-04-21T11:34:46;75723.38;;;-141.45;27.98
31403;BME280;18039;52.188;21.024;2023-04-21T11:37:15;75721.34;;;-141.45;28.23
31403;BME280;18039;52.188;21.024;2023-04-21T11:39:43;75713.25;;;-141.45;28.58
31403;BME280;18039;52.188;21.024;2023-04-21T11:42:10;75717.28;;;-141.45;28.19
31403;BME280;18039;52.188;21.024;2023-04-21T11:44:41;75701.09;;;-141.45;28.63
31403;BME280;18039;52.188;21.024;2023-04-21T11:47:18;75711.22;;;-141.45;28.33
31403;BME280;18039;52.188;21.024;2023-04-21T11:49:55;75697.03;;;-141.45;28.36
31403;BME280;18039;52.188;21.024;2023-04-21T11:55:05;75711.22;;;-141.45;27.79
31403;BME280;18039;52.188;21.024;2023-04-21T11:57:33;75695.00;;;-141.45;28.16
31403;BME280;18039;52.188;21.024;2023-04-21T12:00:02;75680.81;;;-141.45;28.27
31403;BME280;18039;52.188;21.024;2023-04-21T12:02:32;75656.50;;;-141.45;28.22
31403;BME280;18039;52.188;21.024;2023-04-21T12:05:07;75632.19;;;-141.45;28.65
31403;BME280;18039;52.188;21.024;2023-04-21T12:07:45;75632.19;;;-141.45;27.98
31403;BME280;18039;52.188;21.024;2023-04-21T12:10:19;75628.13;;;-141.45;28.08
31403;BME280;18039;52.188;21.024;2023-04-21T12:12:47;75624.06;;;-141.45;27.60
31403;BME280;18039;52.188;21.024;2023-04-21T12:15:19;75632.19;;;-141.45;27.67
31403;BME280;18039;52.188;21.024;2023-04-21T12:17:48;75630.16;;;-141.45;27.59
31403;BME280;18039;52.188;21.024;2023-04-21T12:20:20;75632.19;;;-141.45;28.00
31403;BME280;18039;52.188;21.024;2023-04-21T12:22:48;75620.03;;;-141.45;27.69
31403;BME280;18039;52.188;21.024;2023-04-21T12:25:16;75609.88;;;-141.45;27.69
31403;BME280;18039;52.188;21.024;2023-04-21T12:27:56;75603.81;;;-141.45;28.08
31403;BME280;18039;52.188;21.024;2023-04-21T12:30:24;75579.50;;;-141.45;28.52
31403;BME280;18039;52.188;21.024;2023-04-21T12:32:51;75571.38;;;-141.45;28.17
31403;BME280;18039;52.188;21.024;2023-04-21T12:35:21;75567.34;;;-141.45;27.68
31403;BME280;18039;52.188;21.024;2023-04-21T12:37:49;75567.34;;;-141.45;28.01
31403;BME280;18039;52.188;21.024;2023-04-21T12:40:16;75581.53;;;-141.45;27.44
31403;BME280;18039;52.188;21.024;2023-04-21T12:42:43;75583.53;;;-141.45;27.76
31403;BME280;18039;52.188;21.024;2023-04-21T12:45:10;75587.59;;;-141.45;27.52
31403;BME280;18039;52.188;21.024;2023-04-21T12:47:38;75587.59;;;-141.45;28.03